createdAt,value
2023-03-16T00:00:56.952Z,96350.84
2023-03-16T00:03:24.967Z,96356.34
2023-03-16T00:05:54.330Z,96357.39
2023-03-16T00:08:22.517Z,96363.73
2023-03-16T00:10:54.353Z,96364.80
2023-03-16T00:13:24.186Z,96365.56
2023-03-16T00:15:53.910Z,96367.25
2023-03-16T00:18:23.112Z,96369.95
2023-03-16T00:20:55.684Z,96367.95
2023-03-16T00:23:27.448Z,96370.52
2023-03-16T00:26:00.138Z,96373.67
2023-03-16T00:28:29.103Z,96374.23
2023-03-16T00:30:59.236Z,96367.90
2023-03-16T00:33:27.843Z,96371.41
2023-03-16T00:36:02.357Z,96372.16
2023-03-16T00:38:32.480Z,96373.25
2023-03-16T00:41:04.039Z,96373.21
2023-03-16T00:43:40.734Z,96373.96
2023-03-16T00:46:11.691Z,96375.59
2023-03-16T00:48:42.691Z,96378.54
2023-03-16T00:51:13.110Z,96378.20
2023-03-16T00:53:41.909Z,96374.27
2023-03-16T00:56:11.134Z,96373.90
2023-03-16T00:58:40.528Z,96373.67
2023-03-16T01:01:27.700Z,96376.95
2023-03-16T01:03:56.115Z,96383.44
2023-03-16T01:06:24.191Z,96383.77
2023-03-16T01:08:52.788Z,96387.14
2023-03-16T01:11:22.187Z,96384.96
2023-03-16T01:13:50.988Z,96389.97
2023-03-16T01:16:19.219Z,96385.80
2023-03-16T01:18:52.684Z,96387.60
2023-03-16T01:21:21.810Z,96389.58
2023-03-16T01:23:53.079Z,96386.95
2023-03-16T01:26:23.241Z,96385.87
2023-03-16T01:28:51.934Z,96386.96
2023-03-16T01:31:19.964Z,96387.90
2023-03-16T01:33:48.289Z,96390.36
2023-03-16T01:36:21.594Z,96389.42
2023-03-16T01:39:03.058Z,96390.77
2023-03-16T01:41:37.188Z,96392.98
2023-03-16T01:44:06.080Z,96393.17
2023-03-16T01:46:34.573Z,96395.10
2023-03-16T01:49:13.992Z,96396.35
2023-03-16T01:51:51.801Z,96399.21
2023-03-16T01:54:36.550Z,96401.55
2023-03-16T01:57:13.110Z,96402.27
2023-03-16T01:59:48.451Z,96407.81
2023-03-16T02:02:19.304Z,96411.57
2023-03-16T02:04:59.966Z,96417.80
2023-03-16T02:07:32.044Z,96420.86
2023-03-16T02:10:02.704Z,96422.46
2023-03-16T02:12:31.080Z,96425.84
2023-03-16T02:14:59.431Z,96423.36
2023-03-16T02:17:28.640Z,96424.65
2023-03-16T02:20:00.119Z,96425.83
2023-03-16T02:22:28.269Z,96429.00
2023-03-16T02:24:56.288Z,96430.50
2023-03-16T02:27:31.272Z,96437.31
2023-03-16T02:30:02.745Z,96442.52
2023-03-16T02:32:35.426Z,96445.55
2023-03-16T02:35:04.018Z,96446.11
2023-03-16T02:37:34.749Z,96449.81
2023-03-16T02:40:16.826Z,96448.29
2023-03-16T02:42:45.515Z,96453.13
2023-03-16T02:45:13.610Z,96457.34
2023-03-16T02:47:42.811Z,96457.72
2023-03-16T02:50:12.621Z,96458.81
2023-03-16T02:52:41.200Z,96464.36
2023-03-16T02:55:10.128Z,96463.83
2023-03-16T02:57:38.285Z,96465.59
2023-03-16T03:00:18.261Z,96465.83
2023-03-16T03:02:48.590Z,96469.55
2023-03-16T03:05:16.826Z,96469.78
2023-03-16T03:07:45.523Z,96470.36
2023-03-16T03:10:14.427Z,96478.77
2023-03-16T03:12:42.707Z,96477.05
2023-03-16T03:15:10.983Z,96479.90
2023-03-16T03:18:01.431Z,96477.41
2023-03-16T03:20:31.488Z,96481.77
2023-03-16T03:22:59.671Z,96484.21
2023-03-16T03:25:28.064Z,96486.20
2023-03-16T03:27:56.518Z,96492.07
2023-03-16T03:30:25.280Z,96496.04
2023-03-16T03:32:53.665Z,96499.30
2023-03-16T03:35:23.011Z,96502.73
2023-03-16T03:37:51.099Z,96509.08
2023-03-16T03:40:19.778Z,96513.26
2023-03-16T03:42:51.545Z,96516.04
2023-03-16T03:45:19.526Z,96520.64
2023-03-16T03:47:47.704Z,96517.13
2023-03-16T03:50:19.148Z,96519.34
2023-03-16T03:52:56.950Z,96526.23
2023-03-16T03:55:25.542Z,96527.54
2023-03-16T03:57:54.094Z,96530.11
2023-03-16T04:00:22.306Z,96525.08
2023-03-16T04:02:51.666Z,96532.13
2023-03-16T04:05:28.105Z,96537.88
2023-03-16T04:07:57.796Z,96540.30
2023-03-16T04:10:30.235Z,96549.59
2023-03-16T04:12:59.910Z,96551.73
2023-03-16T04:15:28.664Z,96555.05
2023-03-16T04:18:06.158Z,96555.14
2023-03-16T04:20:34.228Z,96559.20
2023-03-16T04:23:02.724Z,96564.55
2023-03-16T04:25:31.516Z,96570.63
2023-03-16T04:28:00.109Z,96569.94
2023-03-16T04:30:31.096Z,96570.80
2023-03-16T04:33:08.320Z,96571.25
2023-03-16T04:35:36.649Z,96578.23
2023-03-16T04:38:04.998Z,96581.98
2023-03-16T04:40:40.953Z,96587.73
2023-03-16T04:43:14.153Z,96590.76
2023-03-16T04:45:42.530Z,96594.05
2023-03-16T04:48:10.712Z,96598.22
2023-03-16T04:50:38.991Z,96601.80
2023-03-16T04:53:07.052Z,96602.23
2023-03-16T04:55:35.550Z,96608.49
2023-03-16T04:58:03.656Z,96608.80
2023-03-16T05:00:34.680Z,96613.16
2023-03-16T05:03:29.762Z,96619.41
2023-03-16T05:05:58.410Z,96620.95
2023-03-16T05:08:27.354Z,96623.20
2023-03-16T05:10:59.553Z,96626.95
2023-03-16T05:13:29.947Z,96626.73
2023-03-16T05:15:59.937Z,96635.23
2023-03-16T05:18:33.692Z,96634.33
2023-03-16T05:21:01.877Z,96638.05
2023-03-16T05:23:37.820Z,96642.14
2023-03-16T05:26:06.293Z,96644.02
2023-03-16T05:28:34.883Z,96651.57
2023-03-16T05:31:06.801Z,96653.48
2023-03-16T05:33:45.055Z,96659.17
2023-03-16T05:36:17.663Z,96667.23
2023-03-16T05:38:47.756Z,96663.27
2023-03-16T05:41:24.028Z,96669.89
2023-03-16T05:43:59.980Z,96670.36
2023-03-16T05:46:33.595Z,96667.77
2023-03-16T05:49:02.997Z,96671.52
2023-03-16T05:51:32.235Z,96670.88
2023-03-16T05:54:01.495Z,96672.56
2023-03-16T05:56:35.089Z,96672.51
2023-03-16T05:59:03.497Z,96674.83
2023-03-16T06:01:34.200Z,96679.78
2023-03-16T06:04:03.495Z,96681.49
2023-03-16T06:06:34.872Z,96678.57
2023-03-16T06:09:09.494Z,96683.14
2023-03-16T06:11:37.884Z,96689.11
2023-03-16T06:14:06.069Z,96692.16
2023-03-16T06:16:34.434Z,96706.58
2023-03-16T06:19:02.720Z,96712.05
2023-03-16T06:21:31.516Z,96714.43
2023-03-16T06:24:04.923Z,96722.05
2023-03-16T06:26:32.833Z,96723.05
2023-03-16T06:29:01.169Z,96725.23
2023-03-16T06:31:29.836Z,96728.73
2023-03-16T06:33:57.832Z,96733.81
2023-03-16T06:36:25.914Z,96736.02
2023-03-16T06:38:55.635Z,96743.94
2023-03-16T06:41:44.476Z,96749.33
2023-03-16T06:44:14.291Z,96756.86
2023-03-16T06:46:51.900Z,96764.62
2023-03-16T06:49:20.162Z,96771.21
2023-03-16T06:51:48.345Z,96774.11
2023-03-16T06:54:16.622Z,96776.32
2023-03-16T06:56:46.371Z,96774.64
2023-03-16T06:59:14.456Z,96775.94
2023-03-16T07:01:44.532Z,96783.13
2023-03-16T07:04:12.913Z,96787.37
2023-03-16T07:06:41.716Z,96792.27
2023-03-16T07:09:09.923Z,96791.88
2023-03-16T07:11:38.309Z,96795.45
2023-03-16T07:14:07.272Z,96800.61
2023-03-16T07:16:36.312Z,96806.02
2023-03-16T07:19:05.636Z,96812.09
2023-03-16T07:21:40.963Z,96814.22
2023-03-16T07:24:13.123Z,96815.52
2023-03-16T07:26:42.589Z,96816.34
2023-03-16T07:29:12.508Z,96821.77
2023-03-16T07:31:41.028Z,96823.91
2023-03-16T07:34:15.528Z,96821.48
2023-03-16T07:36:49.603Z,96828.36
2023-03-16T07:39:17.896Z,96827.55
2023-03-16T07:41:46.395Z,96835.99
2023-03-16T07:44:20.513Z,96839.77
2023-03-16T07:46:49.811Z,96841.35
2023-03-16T07:49:18.147Z,96847.04
2023-03-16T07:51:46.477Z,96849.69
2023-03-16T07:54:15.166Z,96853.50
2023-03-16T07:56:49.387Z,96853.58
2023-03-16T07:59:31.480Z,96854.84
2023-03-16T08:01:59.912Z,96859.59
2023-03-16T08:04:27.837Z,96863.80
2023-03-16T08:07:00.392Z,96865.08
2023-03-16T08:09:36.075Z,96867.15
2023-03-16T08:12:06.429Z,96872.34
2023-03-16T08:14:36.922Z,96876.45
2023-03-16T08:17:14.253Z,96879.69
2023-03-16T08:19:43.321Z,96878.80
2023-03-16T08:22:12.540Z,96881.75
2023-03-16T08:24:43.466Z,96883.31
2023-03-16T08:27:13.501Z,96886.87
2023-03-16T08:29:43.805Z,96889.10
2023-03-16T08:32:14.749Z,96893.02
2023-03-16T08:34:46.108Z,96892.16
2023-03-16T08:37:14.668Z,96894.13
2023-03-16T08:39:43.993Z,96898.54
2023-03-16T08:42:15.453Z,96900.36
2023-03-16T08:44:51.207Z,96904.75
2023-03-16T08:47:19.526Z,96907.63
2023-03-16T08:49:47.970Z,96910.51
2023-03-16T08:52:17.033Z,96913.94
2023-03-16T08:54:59.836Z,96915.67
2023-03-16T08:57:30.318Z,96919.73
2023-03-16T08:59:58.489Z,96922.93
2023-03-16T09:02:26.880Z,96923.90
2023-03-16T09:04:56.457Z,96926.92
2023-03-16T09:07:24.540Z,96931.02
2023-03-16T09:09:53.043Z,96927.04
2023-03-16T09:12:22.516Z,96931.30
2023-03-16T09:14:50.529Z,96933.91
2023-03-16T09:17:18.804Z,96936.50
2023-03-16T09:19:51.946Z,96944.16
2023-03-16T09:22:20.706Z,96949.54
2023-03-16T09:24:49.779Z,96950.42
2023-03-16T09:27:18.683Z,96956.02
2023-03-16T09:29:46.873Z,96958.08
2023-03-16T09:32:15.663Z,96965.73
2023-03-16T09:34:44.910Z,96969.29
2023-03-16T09:37:13.139Z,96972.14
2023-03-16T09:39:41.236Z,96974.73
2023-03-16T09:42:34.163Z,96978.77
2023-03-16T09:45:09.283Z,96983.83
2023-03-16T09:47:38.819Z,96984.53
2023-03-16T09:50:10.029Z,96984.22
2023-03-16T09:52:38.550Z,96986.24
2023-03-16T09:55:06.930Z,96992.17
2023-03-16T09:57:39.698Z,96995.70
2023-03-16T10:00:14.025Z,96995.14
2023-03-16T10:02:42.200Z,96999.56
2023-03-16T10:05:12.034Z,96998.02
2023-03-16T10:07:52.787Z,97000.38
2023-03-16T10:10:41.253Z,97004.35
2023-03-16T10:13:18.207Z,97003.58
2023-03-16T10:15:47.094Z,97014.23
2023-03-16T10:18:21.209Z,97018.04
2023-03-16T10:20:51.100Z,97019.30
2023-03-16T10:23:24.325Z,97022.10
2023-03-16T10:25:53.521Z,97023.98
2023-03-16T10:28:22.963Z,97021.91
2023-03-16T10:30:52.632Z,97028.45
2023-03-16T10:33:27.145Z,97030.31
2023-03-16T10:35:58.239Z,97031.81
2023-03-16T10:38:50.683Z,97034.52
2023-03-16T10:41:19.349Z,97029.56
2023-03-16T10:43:52.000Z,97037.17
2023-03-16T10:46:20.319Z,97036.08
2023-03-16T10:48:59.654Z,97037.60
2023-03-16T10:51:30.042Z,97037.55
2023-03-16T10:54:05.140Z,97040.02
2023-03-16T10:56:35.547Z,97039.38
2023-03-16T10:59:13.027Z,97044.70
2023-03-16T11:01:44.315Z,97046.77
2023-03-16T11:04:15.807Z,97046.67
2023-03-16T11:06:48.301Z,97049.95
2023-03-16T11:09:21.285Z,97051.77
2023-03-16T11:11:49.958Z,97055.74
2023-03-16T11:14:20.416Z,97057.96
2023-03-16T11:17:09.456Z,97053.02
2023-03-16T11:19:39.802Z,97057.00
2023-03-16T11:22:12.796Z,97051.21
2023-03-16T11:24:44.250Z,97060.33
2023-03-16T11:27:33.291Z,97062.27
2023-03-16T11:30:21.128Z,97064.22
2023-03-16T11:32:51.396Z,97064.84
2023-03-16T11:35:44.050Z,97065.37
2023-03-16T11:38:20.452Z,97066.41
2023-03-16T11:40:49.049Z,97063.53
2023-03-16T11:43:17.138Z,97064.71
2023-03-16T11:45:45.772Z,97065.89
2023-03-16T11:48:28.418Z,97066.87
2023-03-16T11:51:11.544Z,97072.34
2023-03-16T11:53:48.696Z,97076.90
2023-03-16T11:56:39.473Z,97076.19
2023-03-16T11:59:13.314Z,97080.74
2023-03-16T12:02:00.909Z,97080.71
2023-03-16T12:04:41.692Z,97082.83
2023-03-16T12:07:19.495Z,97089.45
2023-03-16T12:09:51.763Z,97096.41
2023-03-16T12:12:23.320Z,97098.48
2023-03-16T12:15:02.433Z,97099.00
2023-03-16T12:17:32.275Z,97096.74
2023-03-16T12:20:15.535Z,97100.16
2023-03-16T12:22:50.222Z,97100.14
2023-03-16T12:25:22.183Z,97101.70
2023-03-16T12:27:53.320Z,97102.98
2023-03-16T12:30:36.337Z,97103.95
2023-03-16T12:33:18.631Z,97102.52
2023-03-16T12:35:49.605Z,97108.20
2023-03-16T12:38:37.613Z,97107.45
2023-03-16T12:41:09.667Z,97105.52
2023-03-16T12:43:37.894Z,97103.42
2023-03-16T12:46:14.309Z,97107.16
2023-03-16T12:48:48.033Z,97110.20
2023-03-16T12:51:15.945Z,97109.58
2023-03-16T12:53:47.873Z,97112.20
2023-03-16T12:56:32.680Z,97113.09
2023-03-16T12:59:04.077Z,97119.27
2023-03-16T13:01:41.592Z,97121.52
2023-03-16T13:04:17.058Z,97120.94
2023-03-16T13:06:47.781Z,97126.75
2023-03-16T13:09:27.504Z,97126.54
2023-03-16T13:11:56.399Z,97130.89
2023-03-16T13:14:34.301Z,97136.50
2023-03-16T13:17:11.836Z,97138.34
2023-03-16T13:19:40.581Z,97140.87
2023-03-16T13:22:28.058Z,97143.23
2023-03-16T13:25:11.218Z,97147.27
2023-03-16T13:27:41.040Z,97143.98
2023-03-16T13:30:36.858Z,97149.36
2023-03-16T13:33:12.491Z,97150.48
2023-03-16T13:35:41.235Z,97153.67
2023-03-16T13:38:19.164Z,97157.70
2023-03-16T13:40:48.381Z,97159.27
2023-03-16T13:43:17.804Z,97159.41
2023-03-16T13:45:46.704Z,97162.28
2023-03-16T13:48:16.412Z,97162.13
2023-03-16T13:50:44.888Z,97162.61
2023-03-16T13:53:19.203Z,97163.52
2023-03-16T13:55:48.244Z,97166.42
2023-03-16T13:58:26.111Z,97167.98
2023-03-16T14:01:01.930Z,97173.79
2023-03-16T14:03:37.507Z,97173.48
2023-03-16T14:06:06.745Z,97175.93
2023-03-16T14:08:34.821Z,97176.46
2023-03-16T14:11:03.878Z,97180.73
2023-03-16T14:13:34.312Z,97183.98
2023-03-16T14:16:03.860Z,97180.70
2023-03-16T14:18:36.690Z,97187.15
2023-03-16T14:21:06.931Z,97188.65
2023-03-16T14:23:40.952Z,97190.74
2023-03-16T14:26:16.695Z,97193.34
2023-03-16T14:29:17.222Z,97197.48
2023-03-16T14:31:45.894Z,97205.27
2023-03-16T14:34:26.165Z,97202.52
2023-03-16T14:36:54.332Z,97204.71
2023-03-16T14:39:27.119Z,97207.14
2023-03-16T14:41:55.095Z,97213.12
2023-03-16T14:44:24.962Z,97210.88
2023-03-16T14:46:54.305Z,97212.59
2023-03-16T14:49:26.084Z,97217.98
2023-03-16T14:51:55.481Z,97218.81
2023-03-16T14:54:24.275Z,97221.86
2023-03-16T14:56:54.403Z,97219.59
2023-03-16T14:59:22.477Z,97221.23
2023-03-16T15:01:51.894Z,97225.27
2023-03-16T15:04:26.301Z,97223.86
2023-03-16T15:06:54.805Z,97229.16
2023-03-16T15:09:46.196Z,97227.21
2023-03-16T15:12:15.395Z,97225.74
2023-03-16T15:15:02.721Z,97234.79
2023-03-16T15:17:30.688Z,97236.83
2023-03-16T15:19:58.979Z,97236.29
2023-03-16T15:22:36.044Z,97238.10
2023-03-16T15:25:24.367Z,97244.50
2023-03-16T15:27:52.880Z,97244.75
2023-03-16T15:30:23.099Z,97244.11
2023-03-16T15:32:51.468Z,97245.71
2023-03-16T15:35:20.785Z,97247.83
2023-03-16T15:37:48.866Z,97252.39
2023-03-16T15:40:18.641Z,97257.50
2023-03-16T15:42:47.082Z,97259.38
2023-03-16T15:45:17.707Z,97265.33
2023-03-16T15:47:45.782Z,97269.98
2023-03-16T15:50:15.705Z,97267.66
2023-03-16T15:52:46.840Z,97273.72
2023-03-16T15:55:17.495Z,97277.35
2023-03-16T15:57:45.750Z,97277.75
2023-03-16T16:00:37.623Z,97286.73
2023-03-16T16:03:06.670Z,97286.79
2023-03-16T16:05:34.846Z,97293.31
2023-03-16T16:08:03.084Z,97298.31
2023-03-16T16:10:32.295Z,97296.02
2023-03-16T16:13:01.523Z,97302.79
2023-03-16T16:15:32.529Z,97304.88
2023-03-16T16:18:20.375Z,97308.16
2023-03-16T16:20:50.009Z,97309.35
2023-03-16T16:23:18.308Z,97315.49
2023-03-16T16:25:46.858Z,97316.46
2023-03-16T16:28:16.694Z,97326.54
2023-03-16T16:30:44.681Z,97330.11
2023-03-16T16:33:25.124Z,97330.29
2023-03-16T16:35:54.297Z,97335.75
2023-03-16T16:38:22.692Z,97341.42
2023-03-16T16:40:51.724Z,97345.38
2023-03-16T16:43:39.037Z,97347.70
2023-03-16T16:46:13.171Z,97350.61
2023-03-16T16:49:02.004Z,97351.86
2023-03-16T16:51:30.071Z,97357.36
2023-03-16T16:53:58.962Z,97357.57
2023-03-16T16:56:28.063Z,97358.15
2023-03-16T16:58:56.830Z,97359.73
2023-03-16T17:01:27.048Z,97362.67
2023-03-16T17:03:55.871Z,97364.59
2023-03-16T17:06:23.834Z,97368.70
2023-03-16T17:08:52.856Z,97373.16
2023-03-16T17:11:29.205Z,97374.16
2023-03-16T17:14:01.893Z,97378.27
2023-03-16T17:16:32.262Z,97377.39
2023-03-16T17:19:00.235Z,97379.95
2023-03-16T17:21:31.141Z,97382.56
2023-03-16T17:24:00.652Z,97384.64
2023-03-16T17:26:30.464Z,97387.59
2023-03-16T17:29:03.042Z,97391.70
2023-03-16T17:31:36.750Z,97392.63
2023-03-16T17:34:16.649Z,97396.14
2023-03-16T17:36:45.677Z,97396.06
2023-03-16T17:39:21.646Z,97400.20
2023-03-16T17:41:52.384Z,97402.40
2023-03-16T17:44:21.520Z,97404.75
2023-03-16T17:46:49.906Z,97407.13
2023-03-16T17:49:18.514Z,97408.35
2023-03-16T17:51:47.355Z,97414.33
2023-03-16T17:54:15.744Z,97417.20
2023-03-16T17:56:43.998Z,97415.59
2023-03-16T17:59:22.165Z,97417.58
2023-03-16T18:01:50.412Z,97418.81
2023-03-16T18:04:21.252Z,97419.04
2023-03-16T18:06:49.639Z,97424.38
2023-03-16T18:09:18.943Z,97422.70
2023-03-16T18:11:48.361Z,97426.45
2023-03-16T18:14:23.884Z,97426.68
2023-03-16T18:16:52.470Z,97430.14
2023-03-16T18:19:23.841Z,97428.81
2023-03-16T18:21:53.682Z,97431.81
2023-03-16T18:24:25.798Z,97433.06
2023-03-16T18:26:54.079Z,97433.64
2023-03-16T18:29:22.581Z,97438.00
2023-03-16T18:31:51.978Z,97439.11
2023-03-16T18:34:23.889Z,97437.83
2023-03-16T18:36:53.273Z,97445.13
2023-03-16T18:39:22.147Z,97445.58
2023-03-16T18:41:51.066Z,97448.74
2023-03-16T18:44:23.539Z,97448.36
2023-03-16T18:46:54.019Z,97447.73
2023-03-16T18:49:43.821Z,97452.15
2023-03-16T18:52:32.900Z,97456.36
2023-03-16T18:55:00.961Z,97457.28
2023-03-16T18:57:29.254Z,97457.42
2023-03-16T18:59:57.428Z,97457.91
2023-03-16T19:02:39.144Z,97458.88
2023-03-16T19:05:17.299Z,97460.18
2023-03-16T19:07:47.178Z,97464.24
2023-03-16T19:10:33.317Z,97467.34
2023-03-16T19:13:01.699Z,97473.67
2023-03-16T19:15:31.842Z,97472.48
2023-03-16T19:18:00.340Z,97475.20
2023-03-16T19:20:30.649Z,97478.09
2023-03-16T19:23:05.765Z,97477.39
2023-03-16T19:25:37.745Z,97484.73
2023-03-16T19:28:07.764Z,97483.52
2023-03-16T19:30:38.704Z,97489.59
2023-03-16T19:33:22.223Z,97489.47
2023-03-16T19:35:52.126Z,97493.31
2023-03-16T19:38:22.370Z,97496.23
2023-03-16T19:40:53.522Z,97496.95
2023-03-16T19:43:21.907Z,97498.54
2023-03-16T19:45:50.115Z,97502.11
2023-03-16T19:48:31.352Z,97503.97
2023-03-16T19:50:59.245Z,97507.23
2023-03-16T19:53:27.706Z,97511.64
2023-03-16T19:55:55.710Z,97512.79
2023-03-16T19:58:30.316Z,97516.19
2023-03-16T20:00:59.217Z,97520.11
2023-03-16T20:03:27.907Z,97520.84
2023-03-16T20:05:55.870Z,97519.92
2023-03-16T20:08:25.792Z,97520.70
2023-03-16T20:11:00.983Z,97520.06
2023-03-16T20:13:31.476Z,97524.58
2023-03-16T20:15:59.540Z,97524.80
2023-03-16T20:18:29.459Z,97525.52
2023-03-16T20:20:57.732Z,97528.11
2023-03-16T20:23:27.387Z,97531.94
2023-03-16T20:25:57.181Z,97527.22
2023-03-16T20:28:27.844Z,97534.46
2023-03-16T20:30:56.133Z,97530.27
2023-03-16T20:33:25.396Z,97538.73
2023-03-16T20:35:59.411Z,97538.48
2023-03-16T20:38:27.474Z,97541.28
2023-03-16T20:40:56.171Z,97546.13
2023-03-16T20:43:26.690Z,97546.17
2023-03-16T20:45:56.133Z,97549.47
2023-03-16T20:48:27.680Z,97556.37
2023-03-16T20:50:57.278Z,97553.48
2023-03-16T20:53:25.366Z,97557.52
2023-03-16T20:55:54.846Z,97558.58
2023-03-16T20:58:28.075Z,97560.13
2023-03-16T21:00:57.876Z,97561.52
2023-03-16T21:03:28.438Z,97559.44
2023-03-16T21:05:59.594Z,97562.34
2023-03-16T21:08:28.026Z,97560.56
2023-03-16T21:10:59.994Z,97561.67
2023-03-16T21:13:32.475Z,97567.10
2023-03-16T21:16:02.465Z,97566.04
2023-03-16T21:18:30.913Z,97571.61
2023-03-16T21:20:59.011Z,97573.62
2023-03-16T21:23:27.271Z,97571.84
2023-03-16T21:26:00.834Z,97575.05
2023-03-16T21:28:29.733Z,97578.92
2023-03-16T21:30:58.284Z,97582.15
2023-03-16T21:33:30.188Z,97579.36
2023-03-16T21:35:59.440Z,97583.44
2023-03-16T21:38:28.888Z,97581.16
2023-03-16T21:40:57.313Z,97581.77
2023-03-16T21:43:26.986Z,97587.41
2023-03-16T21:45:56.917Z,97586.04
2023-03-16T21:48:28.111Z,97588.75
2023-03-16T21:50:57.159Z,97588.75
2023-03-16T21:53:27.305Z,97586.36
2023-03-16T21:55:55.825Z,97584.98
2023-03-16T21:58:23.884Z,97583.60
2023-03-16T22:00:53.653Z,97589.07
2023-03-16T22:03:37.800Z,97592.48
2023-03-16T22:06:16.199Z,97590.27
2023-03-16T22:08:44.194Z,97592.67
2023-03-16T22:11:19.435Z,97590.75
2023-03-16T22:13:47.405Z,97595.17
2023-03-16T22:16:17.442Z,97595.86
2023-03-16T22:18:47.349Z,97598.57
2023-03-16T22:21:18.000Z,97602.70
2023-03-16T22:23:46.244Z,97605.10
2023-03-16T22:26:16.787Z,97607.15
2023-03-16T22:28:46.804Z,97605.97
2023-03-16T22:31:17.142Z,97608.52
2023-03-16T22:33:47.791Z,97611.22
2023-03-16T22:36:17.812Z,97616.02
2023-03-16T22:38:46.440Z,97613.95
2023-03-16T22:41:15.891Z,97618.25
2023-03-16T22:43:44.784Z,97618.25
2023-03-16T22:46:23.731Z,97621.17
2023-03-16T22:48:52.912Z,97623.22
2023-03-16T22:51:26.826Z,97626.47
2023-03-16T22:53:57.554Z,97624.92
2023-03-16T22:56:26.442Z,97627.49
2023-03-16T22:58:57.357Z,97629.71
2023-03-16T23:01:39.686Z,97632.45
2023-03-16T23:04:17.409Z,97637.27
2023-03-16T23:06:47.310Z,97641.09
2023-03-16T23:09:16.320Z,97645.35
2023-03-16T23:11:46.026Z,97643.82
2023-03-16T23:14:16.032Z,97643.38
2023-03-16T23:16:44.696Z,97642.89
2023-03-16T23:19:34.127Z,97647.03
2023-03-16T23:22:05.016Z,97651.69
2023-03-16T23:24:34.042Z,97651.74
2023-03-16T23:27:02.415Z,97652.83
2023-03-16T23:29:31.212Z,97654.58
2023-03-16T23:31:59.386Z,97653.46
2023-03-16T23:34:27.355Z,97659.73
2023-03-16T23:36:55.437Z,97661.70
2023-03-16T23:39:23.430Z,97665.55
2023-03-16T23:41:52.403Z,97672.11
2023-03-16T23:44:25.086Z,97677.14
2023-03-16T23:46:53.158Z,97676.83
2023-03-16T23:49:26.152Z,97674.87
2023-03-16T23:51:56.280Z,97675.82
2023-03-16T23:54:25.782Z,97675.44
2023-03-16T23:56:53.975Z,97676.54
2023-03-16T23:59:23.683Z,97674.40
